sensor_id;sensor_type;location;lat;lon;timestamp;pressure;altitude;pressure_sealevel;temperature;humidity
70133;BME280;57495;49.922;7.966;2022-09-16T00:01:57;99445.91;;;15.36;79.57
70133;BME280;57495;49.922;7.966;2022-09-16T00:03:58;99446.84;;;15.28;79.85
70133;BME280;57495;49.922;7.966;2022-09-16T00:06:00;99446.28;;;15.33;78.29
70133;BME280;57495;49.922;7.966;2022-09-16T00:08:01;99450.44;;;15.36;79.23
70133;BME280;57495;49.922;7.966;2022-09-16T00:10:03;99442.13;;;15.31;77.85
70133;BME280;57495;49.922;7.966;2022-09-16T00:12:06;99445.06;;;15.36;76.46
70133;BME280;57495;49.922;7.966;2022-09-16T00:14:08;99443.41;;;15.35;77.99
70133;BME280;57495;49.922;7.966;2022-09-16T00:16:15;99437.63;;;15.38;77.74
70133;BME280;57495;49.922;7.966;2022-09-16T00:18:18;99439.66;;;15.36;77.85
70133;BME280;57495;49.922;7.966;2022-09-16T00:20:20;99428.53;;;15.39;77.44
70133;BME280;57495;49.922;7.966;2022-09-16T00:22:21;99426.84;;;15.38;76.87
70133;BME280;57495;49.922;7.966;2022-09-16T00:24:23;99428.53;;;15.39;76.51
70133;BME280;57495;49.922;7.966;2022-09-16T00:26:24;99427.69;;;15.38;79.51
70133;BME280;57495;49.922;7.966;2022-09-16T00:28:26;99425.19;;;15.37;79.26
70133;BME280;57495;49.922;7.966;2022-09-16T00:30:27;99418.50;;;15.33;79.26
70133;BME280;57495;49.922;7.966;2022-09-16T00:32:30;99434.69;;;15.33;77.38
70133;BME280;57495;49.922;7.966;2022-09-16T00:34:32;99427.09;;;15.21;80.11
70133;BME280;57495;49.922;7.966;2022-09-16T00:36:33;99425.84;;;15.24;77.01
70133;BME280;57495;49.922;7.966;2022-09-16T00:38:35;99427.31;;;15.26;77.36
70133;BME280;57495;49.922;7.966;2022-09-16T00:40:43;99428.22;;;15.12;76.85
70133;BME280;57495;49.922;7.966;2022-09-16T00:42:45;99416.66;;;15.18;75.55
70133;BME280;57495;49.922;7.966;2022-09-16T00:44:55;99423.94;;;15.18;75.31
70133;BME280;57495;49.922;7.966;2022-09-16T00:46:57;99428.28;;;15.19;75.13
70133;BME280;57495;49.922;7.966;2022-09-16T00:49:04;99426.41;;;15.19;75.71
70133;BME280;57495;49.922;7.966;2022-09-16T00:51:08;99431.53;;;15.14;75.26
70133;BME280;57495;49.922;7.966;2022-09-16T00:53:14;99434.41;;;15.13;74.07
70133;BME280;57495;49.922;7.966;2022-09-16T00:55:21;99430.78;;;15.20;74.35
70133;BME280;57495;49.922;7.966;2022-09-16T00:57:23;99428.56;;;15.09;73.37
70133;BME280;57495;49.922;7.966;2022-09-16T00:59:27;99428.00;;;14.99;73.69
70133;BME280;57495;49.922;7.966;2022-09-16T01:01:30;99430.44;;;15.08;74.27
70133;BME280;57495;49.922;7.966;2022-09-16T01:03:34;99429.50;;;15.16;74.15
70133;BME280;57495;49.922;7.966;2022-09-16T01:05:40;99424.09;;;15.16;73.41
70133;BME280;57495;49.922;7.966;2022-09-16T01:07:43;99425.94;;;15.16;73.47
70133;BME280;57495;49.922;7.966;2022-09-16T01:09:45;99421.69;;;15.21;73.58
70133;BME280;57495;49.922;7.966;2022-09-16T01:11:46;99421.28;;;15.24;73.87
70133;BME280;57495;49.922;7.966;2022-09-16T01:13:48;99413.97;;;15.18;74.00
70133;BME280;57495;49.922;7.966;2022-09-16T01:15:54;99426.63;;;15.18;73.40
70133;BME280;57495;49.922;7.966;2022-09-16T01:18:06;99427.44;;;15.18;76.28
70133;BME280;57495;49.922;7.966;2022-09-16T01:20:27;99434.50;;;15.19;76.74
70133;BME280;57495;49.922;7.966;2022-09-16T01:22:48;99429.09;;;15.19;77.79
70133;BME280;57495;49.922;7.966;2022-09-16T01:24:59;99431.16;;;15.17;78.53
70133;BME280;57495;49.922;7.966;2022-09-16T01:27:17;99427.81;;;15.15;78.08
70133;BME280;57495;49.922;7.966;2022-09-16T01:29:59;99433.19;;;15.15;77.01
70133;BME280;57495;49.922;7.966;2022-09-16T01:32:08;99432.38;;;15.15;77.03
70133;BME280;57495;49.922;7.966;2022-09-16T01:34:18;99430.69;;;15.14;76.78
70133;BME280;57495;49.922;7.966;2022-09-16T01:36:31;99434.88;;;15.16;77.60
70133;BME280;57495;49.922;7.966;2022-09-16T01:38:50;99434.78;;;15.10;77.85
70133;BME280;57495;49.922;7.966;2022-09-16T01:41:00;99443.16;;;15.00;76.81
70133;BME280;57495;49.922;7.966;2022-09-16T01:43:11;99430.91;;;15.12;76.56
70133;BME280;57495;49.922;7.966;2022-09-16T01:45:18;99439.34;;;15.09;76.79
70133;BME280;57495;49.922;7.966;2022-09-16T01:47:29;99440.34;;;14.93;77.77
70133;BME280;57495;49.922;7.966;2022-09-16T01:49:39;99431.16;;;14.87;78.08
70133;BME280;57495;49.922;7.966;2022-09-16T01:51:46;99439.53;;;14.93;78.23
70133;BME280;57495;49.922;7.966;2022-09-16T01:53:53;99439.16;;;14.96;77.88
70133;BME280;57495;49.922;7.966;2022-09-16T01:56:04;99440.81;;;14.97;76.86
70133;BME280;57495;49.922;7.966;2022-09-16T01:58:14;99436.94;;;14.99;77.32
70133;BME280;57495;49.922;7.966;2022-09-16T02:00:17;99436.72;;;15.01;76.22
70133;BME280;57495;49.922;7.966;2022-09-16T02:02:22;99428.66;;;15.01;76.18
70133;BME280;57495;49.922;7.966;2022-09-16T02:04:28;99427.00;;;15.00;75.12
70133;BME280;57495;49.922;7.966;2022-09-16T02:06:32;99429.41;;;14.95;75.32
70133;BME280;57495;49.922;7.966;2022-09-16T02:08:39;99433.38;;;14.99;75.48
70133;BME280;57495;49.922;7.966;2022-09-16T02:10:43;99433.38;;;14.99;75.41
70133;BME280;57495;49.922;7.966;2022-09-16T02:12:48;99427.34;;;14.97;75.03
70133;BME280;57495;49.922;7.966;2022-09-16T02:14:58;99425.06;;;14.94;75.02
70133;BME280;57495;49.922;7.966;2022-09-16T02:17:03;99422.06;;;14.88;74.59
70133;BME280;57495;49.922;7.966;2022-09-16T02:19:10;99428.22;;;14.97;74.71
70133;BME280;57495;49.922;7.966;2022-09-16T02:21:14;99422.38;;;14.94;74.99
70133;BME280;57495;49.922;7.966;2022-09-16T02:23:19;99427.06;;;14.92;74.79
70133;BME280;57495;49.922;7.966;2022-09-16T02:25:21;99426.06;;;14.93;74.59
70133;BME280;57495;49.922;7.966;2022-09-16T02:27:24;99430.69;;;14.99;76.54
70133;BME280;57495;49.922;7.966;2022-09-16T02:29:31;99430.91;;;14.97;77.19
70133;BME280;57495;49.922;7.966;2022-09-16T02:31:35;99432.09;;;14.95;75.93
70133;BME280;57495;49.922;7.966;2022-09-16T02:33:43;99424.66;;;14.97;75.68
70133;BME280;57495;49.922;7.966;2022-09-16T02:35:48;99420.97;;;14.98;76.92
70133;BME280;57495;49.922;7.966;2022-09-16T02:37:55;99432.91;;;14.95;77.63
70133;BME280;57495;49.922;7.966;2022-09-16T02:40:03;99429.50;;;14.86;78.54
70133;BME280;57495;49.922;7.966;2022-09-16T02:42:07;99428.66;;;14.86;78.42
70133;BME280;57495;49.922;7.966;2022-09-16T02:44:09;99434.31;;;14.76;79.41
70133;BME280;57495;49.922;7.966;2022-09-16T02:46:18;99427.34;;;14.67;79.65
70133;BME280;57495;49.922;7.966;2022-09-16T02:48:28;99427.34;;;14.67;80.16
70133;BME280;57495;49.922;7.966;2022-09-16T02:50:39;99433.38;;;14.69;79.16
70133;BME280;57495;49.922;7.966;2022-09-16T02:52:45;99437.94;;;14.68;79.01
70133;BME280;57495;49.922;7.966;2022-09-16T02:54:51;99436.06;;;14.69;80.39
70133;BME280;57495;49.922;7.966;2022-09-16T02:56:56;99435.41;;;14.67;80.62
70133;BME280;57495;49.922;7.966;2022-09-16T02:58:58;99436.16;;;14.61;77.87
70133;BME280;57495;49.922;7.966;2022-09-16T03:01:01;99434.78;;;14.27;79.81
70133;BME280;57495;49.922;7.966;2022-09-16T03:03:03;99429.09;;;13.76;82.88
70133;BME280;57495;49.922;7.966;2022-09-16T03:05:05;99438.16;;;13.75;82.87
70133;BME280;57495;49.922;7.966;2022-09-16T03:07:08;99435.69;;;13.96;81.58
70133;BME280;57495;49.922;7.966;2022-09-16T03:09:13;99437.03;;;14.15;82.24
70133;BME280;57495;49.922;7.966;2022-09-16T03:11:35;99439.78;;;14.30;81.33
70133;BME280;57495;49.922;7.966;2022-09-16T03:13:44;99435.69;;;14.34;81.09
70133;BME280;57495;49.922;7.966;2022-09-16T03:15:57;99437.91;;;14.30;81.06
70133;BME280;57495;49.922;7.966;2022-09-16T03:18:16;99431.97;;;14.20;81.05
70133;BME280;57495;49.922;7.966;2022-09-16T03:20:28;99423.25;;;14.18;81.06
70133;BME280;57495;49.922;7.966;2022-09-16T03:22:45;99423.38;;;14.02;81.42
70133;BME280;57495;49.922;7.966;2022-09-16T03:24:55;99422.97;;;13.90;82.55
70133;BME280;57495;49.922;7.966;2022-09-16T03:27:05;99424.72;;;13.75;84.01
70133;BME280;57495;49.922;7.966;2022-09-16T03:29:12;99420.50;;;13.49;85.78
70133;BME280;57495;49.922;7.966;2022-09-16T03:31:22;99412.78;;;13.54;86.64
70133;BME280;57495;49.922;7.966;2022-09-16T03:33:31;99419.13;;;13.61;86.38
70133;BME280;57495;49.922;7.966;2022-09-16T03:35:37;99407.84;;;13.89;85.79
70133;BME280;57495;49.922;7.966;2022-09-16T03:37:40;99409.69;;;13.88;85.68
70133;BME280;57495;49.922;7.966;2022-09-16T03:39:47;99401.03;;;14.01;84.87
70133;BME280;57495;49.922;7.966;2022-09-16T03:41:52;99399.69;;;13.97;84.82
70133;BME280;57495;49.922;7.966;2022-09-16T03:43:56;99398.38;;;13.93;85.29
70133;BME280;57495;49.922;7.966;2022-09-16T03:45:58;99399.09;;;14.10;85.19
70133;BME280;57495;49.922;7.966;2022-09-16T03:47:59;99398.91;;;14.11;84.89
70133;BME280;57495;49.922;7.966;2022-09-16T03:50:01;99401.69;;;14.03;84.73
70133;BME280;57495;49.922;7.966;2022-09-16T03:52:04;99404.19;;;13.82;86.19
70133;BME280;57495;49.922;7.966;2022-09-16T03:54:06;99408.44;;;13.76;87.28
70133;BME280;57495;49.922;7.966;2022-09-16T03:56:07;99402.69;;;13.56;87.77
70133;BME280;57495;49.922;7.966;2022-09-16T03:58:10;99412.66;;;13.70;87.89
70133;BME280;57495;49.922;7.966;2022-09-16T04:00:12;99409.31;;;13.68;88.83
70133;BME280;57495;49.922;7.966;2022-09-16T04:02:15;99408.38;;;13.61;88.83
70133;BME280;57495;49.922;7.966;2022-09-16T04:04:16;99409.84;;;13.64;89.13
70133;BME280;57495;49.922;7.966;2022-09-16T04:06:18;99406.34;;;13.63;88.52
70133;BME280;57495;49.922;7.966;2022-09-16T04:08:19;99406.03;;;13.58;88.87
70133;BME280;57495;49.922;7.966;2022-09-16T04:10:20;99404.06;;;13.52;89.01
70133;BME280;57495;49.922;7.966;2022-09-16T04:12:22;99404.41;;;13.49;89.71
70133;BME280;57495;49.922;7.966;2022-09-16T04:14:24;99400.72;;;13.50;89.94
70133;BME280;57495;49.922;7.966;2022-09-16T04:16:26;99413.88;;;13.37;90.81
70133;BME280;57495;49.922;7.966;2022-09-16T04:18:29;99401.53;;;13.50;90.66
70133;BME280;57495;49.922;7.966;2022-09-16T04:20:32;99396.97;;;13.59;89.66
70133;BME280;57495;49.922;7.966;2022-09-16T04:22:33;99398.22;;;13.71;88.32
70133;BME280;57495;49.922;7.966;2022-09-16T04:24:35;99400.63;;;13.66;88.96
70133;BME280;57495;49.922;7.966;2022-09-16T04:26:36;99401.91;;;13.70;88.44
70133;BME280;57495;49.922;7.966;2022-09-16T04:28:37;99398.69;;;13.52;89.44
70133;BME280;57495;49.922;7.966;2022-09-16T04:30:40;99409.50;;;13.36;88.88
70133;BME280;57495;49.922;7.966;2022-09-16T04:32:41;99399.44;;;13.29;89.42
70133;BME280;57495;49.922;7.966;2022-09-16T04:34:43;99395.63;;;13.24;89.31
70133;BME280;57495;49.922;7.966;2022-09-16T04:36:44;99402.00;;;13.31;88.62
70133;BME280;57495;49.922;7.966;2022-09-16T04:38:46;99393.94;;;13.31;87.94
70133;BME280;57495;49.922;7.966;2022-09-16T04:40:48;99392.91;;;13.32;87.70
70133;BME280;57495;49.922;7.966;2022-09-16T04:42:50;99397.47;;;13.31;87.48
70133;BME280;57495;49.922;7.966;2022-09-16T04:44:51;99390.97;;;13.49;87.05
70133;BME280;57495;49.922;7.966;2022-09-16T04:46:54;99399.78;;;13.66;86.67
70133;BME280;57495;49.922;7.966;2022-09-16T04:48:56;99393.94;;;13.62;86.91
70133;BME280;57495;49.922;7.966;2022-09-16T04:51:01;99384.31;;;13.68;86.42
70133;BME280;57495;49.922;7.966;2022-09-16T04:53:03;99390.44;;;13.53;86.85
70133;BME280;57495;49.922;7.966;2022-09-16T04:55:05;99396.16;;;13.50;87.55
70133;BME280;57495;49.922;7.966;2022-09-16T04:57:07;99399.41;;;13.46;87.82
70133;BME280;57495;49.922;7.966;2022-09-16T04:59:08;99394.72;;;13.40;88.48
70133;BME280;57495;49.922;7.966;2022-09-16T05:01:12;99399.44;;;13.38;88.36
70133;BME280;57495;49.922;7.966;2022-09-16T05:03:15;99401.19;;;13.53;88.16
70133;BME280;57495;49.922;7.966;2022-09-16T05:05:17;99405.84;;;13.37;89.31
70133;BME280;57495;49.922;7.966;2022-09-16T05:07:19;99400.09;;;13.40;88.82
70133;BME280;57495;49.922;7.966;2022-09-16T05:09:20;99403.44;;;13.42;88.37
70133;BME280;57495;49.922;7.966;2022-09-16T05:11:23;99406.50;;;13.39;87.78
70133;BME280;57495;49.922;7.966;2022-09-16T05:13:25;99402.66;;;13.25;88.57
70133;BME280;57495;49.922;7.966;2022-09-16T05:15:27;99396.50;;;13.16;89.02
70133;BME280;57495;49.922;7.966;2022-09-16T05:17:29;99402.69;;;13.17;88.75
70133;BME280;57495;49.922;7.966;2022-09-16T05:19:32;99403.34;;;13.19;88.93
70133;BME280;57495;49.922;7.966;2022-09-16T05:21:36;99404.19;;;13.19;89.22
70133;BME280;57495;49.922;7.966;2022-09-16T05:23:38;99404.50;;;13.24;89.37
70133;BME280;57495;49.922;7.966;2022-09-16T05:25:40;99400.84;;;13.17;89.29
70133;BME280;57495;49.922;7.966;2022-09-16T05:27:41;99409.88;;;13.24;89.26
70133;BME280;57495;49.922;7.966;2022-09-16T05:29:42;99399.84;;;13.18;89.15
70133;BME280;57495;49.922;7.966;2022-09-16T05:31:44;99401.56;;;13.11;90.06
70133;BME280;57495;49.922;7.966;2022-09-16T05:33:53;99401.94;;;13.00;89.39
70133;BME280;57495;49.922;7.966;2022-09-16T05:36:02;99416.03;;;13.02;89.19
70133;BME280;57495;49.922;7.966;2022-09-16T05:38:04;99421.22;;;13.03;90.69
70133;BME280;57495;49.922;7.966;2022-09-16T05:40:07;99414.16;;;13.10;89.64
70133;BME280;57495;49.922;7.966;2022-09-16T05:42:08;99416.19;;;13.00;88.83
70133;BME280;57495;49.922;7.966;2022-09-16T05:44:10;99419.88;;;12.99;88.98
70133;BME280;57495;49.922;7.966;2022-09-16T05:46:17;99419.53;;;13.02;90.00
70133;BME280;57495;49.922;7.966;2022-09-16T05:48:18;99415.97;;;13.10;88.66
70133;BME280;57495;49.922;7.966;2022-09-16T05:50:21;99420.66;;;13.16;88.68
70133;BME280;57495;49.922;7.966;2022-09-16T05:52:25;99424.69;;;13.12;88.54
70133;BME280;57495;49.922;7.966;2022-09-16T05:54:26;99417.09;;;13.24;89.38
70133;BME280;57495;49.922;7.966;2022-09-16T05:56:28;99419.25;;;13.28;88.28
70133;BME280;57495;49.922;7.966;2022-09-16T05:58:32;99414.75;;;13.29;88.97
70133;BME280;57495;49.922;7.966;2022-09-16T06:00:33;99410.22;;;13.21;89.39
70133;BME280;57495;49.922;7.966;2022-09-16T06:02:34;99411.25;;;13.20;89.61
70133;BME280;57495;49.922;7.966;2022-09-16T06:04:36;99412.72;;;13.23;89.58
70133;BME280;57495;49.922;7.966;2022-09-16T06:06:38;99418.19;;;13.46;88.06
70133;BME280;57495;49.922;7.966;2022-09-16T06:08:41;99417.56;;;13.36;89.35
70133;BME280;57495;49.922;7.966;2022-09-16T06:10:43;99411.31;;;13.43;89.10
70133;BME280;57495;49.922;7.966;2022-09-16T06:12:44;99416.16;;;13.48;88.44
70133;BME280;57495;49.922;7.966;2022-09-16T06:14:45;99416.50;;;13.53;88.42
70133;BME280;57495;49.922;7.966;2022-09-16T06:16:47;99418.44;;;13.59;88.32
70133;BME280;57495;49.922;7.966;2022-09-16T06:18:48;99417.72;;;13.65;89.00
70133;BME280;57495;49.922;7.966;2022-09-16T06:20:50;99417.69;;;13.73;86.02
70133;BME280;57495;49.922;7.966;2022-09-16T06:22:51;99416.34;;;13.69;88.00
70133;BME280;57495;49.922;7.966;2022-09-16T06:24:54;99408.69;;;13.66;85.45
70133;BME280;57495;49.922;7.966;2022-09-16T06:26:55;99415.66;;;13.76;88.16
70133;BME280;57495;49.922;7.966;2022-09-16T06:28:57;99407.97;;;13.96;86.16
70133;BME280;57495;49.922;7.966;2022-09-16T06:31:04;99407.25;;;14.02;84.56
70133;BME280;57495;49.922;7.966;2022-09-16T06:33:06;99409.22;;;13.85;85.70
70133;BME280;57495;49.922;7.966;2022-09-16T06:35:10;99413.09;;;13.82;86.38
70133;BME280;57495;49.922;7.966;2022-09-16T06:37:12;99414.41;;;13.86;86.54
70133;BME280;57495;49.922;7.966;2022-09-16T06:39:15;99410.69;;;13.87;86.56
70133;BME280;57495;49.922;7.966;2022-09-16T06:41:19;99410.19;;;13.92;86.70
70133;BME280;57495;49.922;7.966;2022-09-16T06:43:21;99408.97;;;13.71;85.64
70133;BME280;57495;49.922;7.966;2022-09-16T06:45:22;99413.88;;;13.68;86.73
70133;BME280;57495;49.922;7.966;2022-09-16T06:47:24;99408.50;;;13.91;84.63
70133;BME280;57495;49.922;7.966;2022-09-16T06:49:25;99407.81;;;14.12;84.98
70133;BME280;57495;49.922;7.966;2022-09-16T06:51:28;99408.88;;;14.03;84.93
70133;BME280;57495;49.922;7.966;2022-09-16T06:53:30;99414.53;;;14.16;84.39
70133;BME280;57495;49.922;7.966;2022-09-16T06:55:32;99409.31;;;14.15;85.22
70133;BME280;57495;49.922;7.966;2022-09-16T06:57:35;99414.34;;;14.18;85.34
70133;BME280;57495;49.922;7.966;2022-09-16T06:59:36;99421.97;;;14.29;83.43
70133;BME280;57495;49.922;7.966;2022-09-16T07:01:37;99417.91;;;14.33;83.72
70133;BME280;57495;49.922;7.966;2022-09-16T07:03:41;99433.84;;;14.35;80.86
70133;BME280;57495;49.922;7.966;2022-09-16T07:05:42;99417.44;;;14.44;81.01
70133;BME280;57495;49.922;7.966;2022-09-16T07:07:44;99429.69;;;14.47;80.30
70133;BME280;57495;49.922;7.966;2022-09-16T07:09:45;99425.88;;;14.64;80.22
70133;BME280;57495;49.922;7.966;2022-09-16T07:11:46;99420.50;;;14.64;79.79
70133;BME280;57495;49.922;7.966;2022-09-16T07:13:50;99415.88;;;14.50;79.18
70133;BME280;57495;49.922;7.966;2022-09-16T07:15:51;99428.09;;;14.61;78.73
70133;BME280;57495;49.922;7.966;2022-09-16T07:17:53;99424.13;;;14.48;80.07
70133;BME280;57495;49.922;7.966;2022-09-16T07:19:55;99414.03;;;14.13;79.66
70133;BME280;57495;49.922;7.966;2022-09-16T07:21:56;99413.19;;;14.12;79.91
70133;BME280;57495;49.922;7.966;2022-09-16T07:23:59;99413.34;;;14.34;79.10
70133;BME280;57495;49.922;7.966;2022-09-16T07:26:02;99420.50;;;14.41;79.68
70133;BME280;57495;49.922;7.966;2022-09-16T07:28:03;99417.16;;;14.39;79.05
70133;BME280;57495;49.922;7.966;2022-09-16T07:30:07;99424.44;;;14.54;78.70
70133;BME280;57495;49.922;7.966;2022-09-16T07:32:09;99418.25;;;14.68;78.02
70133;BME280;57495;49.922;7.966;2022-09-16T07:34:11;99422.31;;;14.64;75.96
70133;BME280;57495;49.922;7.966;2022-09-16T07:36:14;99423.00;;;14.96;75.03
70133;BME280;57495;49.922;7.966;2022-09-16T07:38:16;99415.63;;;15.19;75.34
70133;BME280;57495;49.922;7.966;2022-09-16T07:40:17;99420.94;;;15.27;72.11
70133;BME280;57495;49.922;7.966;2022-09-16T07:42:19;99423.03;;;15.32;71.79
70133;BME280;57495;49.922;7.966;2022-09-16T07:44:21;99419.16;;;15.35;71.10
70133;BME280;57495;49.922;7.966;2022-09-16T07:46:26;99421.25;;;15.54;70.05
70133;BME280;57495;49.922;7.966;2022-09-16T07:48:28;99417.03;;;15.66;68.92
70133;BME280;57495;49.922;7.966;2022-09-16T07:50:29;99420.75;;;15.65;67.88
70133;BME280;57495;49.922;7.966;2022-09-16T07:52:31;99415.47;;;15.57;66.54
70133;BME280;57495;49.922;7.966;2022-09-16T07:54:32;99424.50;;;15.50;65.88
70133;BME280;57495;49.922;7.966;2022-09-16T07:56:36;99423.28;;;15.52;66.06
70133;BME280;57495;49.922;7.966;2022-09-16T07:58:38;99421.25;;;15.54;63.05
70133;BME280;57495;49.922;7.966;2022-09-16T08:00:41;99423.03;;;15.83;64.72
70133;BME280;57495;49.922;7.966;2022-09-16T08:02:44;99422.84;;;15.85;64.08
70133;BME280;57495;49.922;7.966;2022-09-16T08:04:46;99424.50;;;15.86;63.31
70133;BME280;57495;49.922;7.966;2022-09-16T08:06:47;99426.13;;;16.02;62.68
70133;BME280;57495;49.922;7.966;2022-09-16T08:08:50;99426.72;;;15.97;62.08
70133;BME280;57495;49.922;7.966;2022-09-16T08:10:53;99421.78;;;16.01;62.09
70133;BME280;57495;49.922;7.966;2022-09-16T08:12:55;99424.69;;;16.06;62.23
70133;BME280;57495;49.922;7.966;2022-09-16T08:14:56;99431.44;;;15.95;60.53
70133;BME280;57495;49.922;7.966;2022-09-16T08:16:58;99422.78;;;15.78;60.81
70133;BME280;57495;49.922;7.966;2022-09-16T08:19:01;99429.66;;;15.81;61.40
70133;BME280;57495;49.922;7.966;2022-09-16T08:21:04;99430.56;;;15.88;59.30
70133;BME280;57495;49.922;7.966;2022-09-16T08:23:06;99432.34;;;16.24;59.78
70133;BME280;57495;49.922;7.966;2022-09-16T08:25:08;99435.56;;;16.62;60.03
70133;BME280;57495;49.922;7.966;2022-09-16T08:27:09;99427.94;;;17.01;58.66
70133;BME280;57495;49.922;7.966;2022-09-16T08:29:11;99426.63;;;17.25;58.79
70133;BME280;57495;49.922;7.966;2022-09-16T08:31:12;99425.31;;;17.21;56.96
70133;BME280;57495;49.922;7.966;2022-09-16T08:33:13;99426.38;;;17.27;56.68
70133;BME280;57495;49.922;7.966;2022-09-16T08:35:21;99435.06;;;17.15;56.08
70133;BME280;57495;49.922;7.966;2022-09-16T08:37:23;99433.25;;;17.23;54.96
70133;BME280;57495;49.922;7.966;2022-09-16T08:39:24;99430.59;;;17.36;54.67
70133;BME280;57495;49.922;7.966;2022-09-16T08:41:35;99435.00;;;17.50;55.38
70133;BME280;57495;49.922;7.966;2022-09-16T08:43:43;99428.78;;;17.50;54.51
70133;BME280;57495;49.922;7.966;2022-09-16T08:45:53;99437.88;;;17.35;54.91
70133;BME280;57495;49.922;7.966;2022-09-16T08:48:07;99436.25;;;17.48;55.42
70133;BME280;57495;49.922;7.966;2022-09-16T08:50:15;99426.78;;;17.72;54.10
70133;BME280;57495;49.922;7.966;2022-09-16T08:52:27;99435.50;;;17.74;52.58
70133;BME280;57495;49.922;7.966;2022-09-16T08:54:36;99427.44;;;17.87;53.16
70133;BME280;57495;49.922;7.966;2022-09-16T08:56:39;99432.72;;;18.42;53.27
70133;BME280;57495;49.922;7.966;2022-09-16T08:58:44;99429.97;;;18.89;51.71
70133;BME280;57495;49.922;7.966;2022-09-16T09:00:52;99423.94;;;18.93;52.81
70133;BME280;57495;49.922;7.966;2022-09-16T09:02:56;99431.25;;;18.60;51.33
70133;BME280;57495;49.922;7.966;2022-09-16T09:04:59;99421.06;;;18.42;50.54
70133;BME280;57495;49.922;7.966;2022-09-16T09:07:07;99424.38;;;18.17;51.45
70133;BME280;57495;49.922;7.966;2022-09-16T09:09:27;99435.00;;;18.12;53.21
70133;BME280;57495;49.922;7.966;2022-09-16T09:11:37;99428.34;;;18.48;51.60
70133;BME280;57495;49.922;7.966;2022-09-16T09:13:53;99429.59;;;18.39;52.78
70133;BME280;57495;49.922;7.966;2022-09-16T09:16:01;99427.41;;;17.74;54.45
70133;BME280;57495;49.922;7.966;2022-09-16T09:18:17;99434.81;;;18.27;53.59
70133;BME280;57495;49.922;7.966;2022-09-16T09:20:32;99440.41;;;18.92;53.61
70133;BME280;57495;49.922;7.966;2022-09-16T09:22:53;99434.09;;;19.11;52.17
70133;BME280;57495;49.922;7.966;2022-09-16T09:25:20;99426.63;;;19.00;51.55
70133;BME280;57495;49.922;7.966;2022-09-16T09:27:25;99428.09;;;18.96;53.30
70133;BME280;57495;49.922;7.966;2022-09-16T09:29:38;99433.66;;;19.66;51.26
70133;BME280;57495;49.922;7.966;2022-09-16T09:31:50;99425.53;;;20.05;50.51
70133;BME280;57495;49.922;7.966;2022-09-16T09:33:58;99425.34;;;20.57;48.43
70133;BME280;57495;49.922;7.966;2022-09-16T09:36:21;99421.13;;;20.86;48.38
70133;BME280;57495;49.922;7.966;2022-09-16T09:38:38;99417.31;;;20.69;46.19
70133;BME280;57495;49.922;7.966;2022-09-16T09:40:48;99412.81;;;20.31;47.55
70133;BME280;57495;49.922;7.966;2022-09-16T09:43:04;99411.13;;;20.04;48.02
70133;BME280;57495;49.922;7.966;2022-09-16T09:45:16;99411.56;;;19.63;48.23
70133;BME280;57495;49.922;7.966;2022-09-16T09:47:23;99405.97;;;19.06;48.79
70133;BME280;57495;49.922;7.966;2022-09-16T09:49:28;99415.81;;;18.87;50.38
70133;BME280;57495;49.922;7.966;2022-09-16T09:51:33;99411.44;;;18.72;50.80
70133;BME280;57495;49.922;7.966;2022-09-16T09:53:40;99416.47;;;18.55;51.61
70133;BME280;57495;49.922;7.966;2022-09-16T09:55:48;99417.09;;;18.64;53.08
70133;BME280;57495;49.922;7.966;2022-09-16T09:58:08;99414.63;;;18.36;52.65
70133;BME280;57495;49.922;7.966;2022-09-16T10:00:15;99419.56;;;18.52;54.33
70133;BME280;57495;49.922;7.966;2022-09-16T10:02:19;99413.75;;;18.02;52.66
70133;BME280;57495;49.922;7.966;2022-09-16T10:04:21;99418.66;;;17.72;53.51
70133;BME280;57495;49.922;7.966;2022-09-16T10:06:26;99413.41;;;17.57;53.40
70133;BME280;57495;49.922;7.966;2022-09-16T10:08:32;99414.06;;;17.66;54.06
70133;BME280;57495;49.922;7.966;2022-09-16T10:10:41;99411.53;;;17.57;53.94
70133;BME280;57495;49.922;7.966;2022-09-16T10:12:46;99418.13;;;17.35;54.65
70133;BME280;57495;49.922;7.966;2022-09-16T10:14:48;99415.81;;;17.32;55.37
70133;BME280;57495;49.922;7.966;2022-09-16T10:16:50;99412.75;;;17.48;53.93
70133;BME280;57495;49.922;7.966;2022-09-16T10:18:56;99410.25;;;17.47;54.44
70133;BME280;57495;49.922;7.966;2022-09-16T10:21:02;99409.06;;;17.63;54.88
70133;BME280;57495;49.922;7.966;2022-09-16T10:23:10;99417.09;;;18.24;54.87
70133;BME280;57495;49.922;7.966;2022-09-16T10:25:21;99411.94;;;19.28;53.02
70133;BME280;57495;49.922;7.966;2022-09-16T10:27:25;99399.72;;;19.50;50.98
70133;BME280;57495;49.922;7.966;2022-09-16T10:29:28;99395.28;;;19.63;50.56
70133;BME280;57495;49.922;7.966;2022-09-16T10:31:34;99396.88;;;19.39;50.91
70133;BME280;57495;49.922;7.966;2022-09-16T10:33:41;99400.38;;;18.94;48.48
70133;BME280;57495;49.922;7.966;2022-09-16T10:35:51;99405.00;;;18.53;49.63
70133;BME280;57495;49.922;7.966;2022-09-16T10:37:55;99404.63;;;18.23;50.50
70133;BME280;57495;49.922;7.966;2022-09-16T10:39:57;99406.69;;;18.28;51.44
70133;BME280;57495;49.922;7.966;2022-09-16T10:41:59;99393.97;;;18.15;51.39
70133;BME280;57495;49.922;7.966;2022-09-16T10:44:03;99396.25;;;18.11;50.95
70133;BME280;57495;49.922;7.966;2022-09-16T10:46:13;99403.25;;;17.66;53.91
70133;BME280;57495;49.922;7.966;2022-09-16T10:48:17;99397.53;;;18.22;52.93
70133;BME280;57495;49.922;7.966;2022-09-16T10:50:20;99403.34;;;18.12;52.78
70133;BME280;57495;49.922;7.966;2022-09-16T10:52:24;99394.59;;;18.04;52.84
70133;BME280;57495;49.922;7.966;2022-09-16T10:54:26;99400.97;;;17.76;54.83
70133;BME280;57495;49.922;7.966;2022-09-16T10:56:29;99409.34;;;17.88;55.16
70133;BME280;57495;49.922;7.966;2022-09-16T10:58:32;99411.97;;;17.61;53.07
70133;BME280;57495;49.922;7.966;2022-09-16T11:00:40;99405.28;;;17.44;55.47
70133;BME280;57495;49.922;7.966;2022-09-16T11:03:19;99422.63;;;16.58;60.83